KLM24U EHAM-LFPG
Flight info
| Callsign | KLM24U |
|---|---|
| Flight time | N/A |
| Altitude | 29000 |
| Route | WOODY N872 NIK/N0474F300 DCT NILEM/N0473F290 DCT MOPIL |
| Aircraft | B748/H-SDE3FGHIM1M2RWXY/LB1 |
Departure
| Time | 2026-04-17 21:01 |
|---|---|
| Airport | Amsterdam Airport Schiphol (EHAM) |
Arrival
| Time | N/A |
|---|---|
| Airport | Charles de Gaulle International Airport (LFPG) |
| Time | Latitude | Longitude | Altitude | Speed | Heading |
|---|---|---|---|---|---|
| 2026-04-17 20:42 | 52.29774 | 4.76886 | 23 ft | 0 kts | 148° |
| 2026-04-17 20:51 | 52.29785 | 4.76875 | 26 ft | 3 kts | 148° |
| 2026-04-17 20:51 | 52.29800 | 4.76859 | 27 ft | 3 kts | 148° |
| 2026-04-17 20:52 | 52.29814 | 4.76844 | 28 ft | 2 kts | 148° |
| 2026-04-17 20:52 | 52.29829 | 4.76830 | 29 ft | 3 kts | 147° |
| 2026-04-17 20:52 | 52.29844 | 4.76806 | 30 ft | 3 kts | 103° |
| 2026-04-17 20:52 | 52.29845 | 4.76771 | 31 ft | 3 kts | 58° |
| 2026-04-17 20:53 | 52.29842 | 4.76765 | 31 ft | 0 kts | 56° |
| 2026-04-17 20:57 | 52.29843 | 4.76766 | 25 ft | 1 kts | 56° |
| 2026-04-17 20:57 | 52.29849 | 4.76780 | 26 ft | 1 kts | 55° |
| 2026-04-17 20:57 | 52.29862 | 4.76806 | 30 ft | 6 kts | 49° |
| 2026-04-17 20:58 | 52.29908 | 4.76881 | 31 ft | 13 kts | 45° |
| 2026-04-17 20:58 | 52.29978 | 4.77011 | 28 ft | 17 kts | 51° |
| 2026-04-17 20:58 | 52.30051 | 4.77209 | 27 ft | 23 kts | 59° |
| 2026-04-17 20:58 | 52.30143 | 4.77435 | 26 ft | 24 kts | 51° |
| 2026-04-17 20:59 | 52.30191 | 4.77521 | 25 ft | 0 kts | 28° |
| 2026-04-17 20:59 | 52.30192 | 4.77521 | 25 ft | 0 kts | 28° |
| 2026-04-17 20:59 | 52.30206 | 4.77531 | 28 ft | 6 kts | 23° |
| 2026-04-17 20:59 | 52.30259 | 4.77557 | 29 ft | 10 kts | 12° |
| 2026-04-17 21:00 | 52.30323 | 4.77547 | 26 ft | 8 kts | 327° |
| 2026-04-17 21:00 | 52.30347 | 4.77478 | 29 ft | 7 kts | 276° |
| 2026-04-17 21:00 | 52.30329 | 4.77412 | 30 ft | 7 kts | 234° |
| 2026-04-17 21:00 | 52.30320 | 4.77389 | 26 ft | 1 kts | 234° |
| 2026-04-17 21:01 | 52.30204 | 4.77116 | 29 ft | 69 kts | 237° |
| 2026-04-17 21:01 | 52.29823 | 4.76093 | 27 ft | 138 kts | 238° |
| 2026-04-17 21:01 | 52.29237 | 4.74510 | 133 ft | 185 kts | 239° |
| 2026-04-17 21:01 | 52.28489 | 4.72581 | 909 ft | 205 kts | 236° |
| 2026-04-17 21:02 | 52.27707 | 4.70615 | 1595 ft | 207 kts | 236° |
| 2026-04-17 21:02 | 52.26683 | 4.69051 | 2485 ft | 205 kts | 205° |
| 2026-04-17 21:02 | 52.25268 | 4.68640 | 3426 ft | 214 kts | 176° |
| 2026-04-17 21:02 | 52.23821 | 4.69363 | 4444 ft | 223 kts | 157° |
| 2026-04-17 21:03 | 52.22388 | 4.70529 | 5298 ft | 238 kts | 157° |
| 2026-04-17 21:03 | 52.20856 | 4.71786 | 6028 ft | 255 kts | 157° |
| 2026-04-17 21:03 | 52.19239 | 4.73097 | 6892 ft | 263 kts | 157° |
| 2026-04-17 21:03 | 52.17598 | 4.74406 | 7738 ft | 269 kts | 160° |
| 2026-04-17 21:04 | 52.15795 | 4.75264 | 8587 ft | 272 kts | 169° |
| 2026-04-17 21:04 | 52.13926 | 4.75963 | 9449 ft | 279 kts | 170° |
| 2026-04-17 21:04 | 52.12016 | 4.76680 | 10282 ft | 285 kts | 169° |
| 2026-04-17 21:04 | 52.10048 | 4.77448 | 10899 ft | 297 kts | 169° |
| 2026-04-17 21:05 | 52.07985 | 4.78255 | 11428 ft | 312 kts | 169° |
| 2026-04-17 21:05 | 52.05815 | 4.79095 | 11924 ft | 329 kts | 169° |
| 2026-04-17 21:05 | 52.03526 | 4.79979 | 12396 ft | 346 kts | 169° |
| 2026-04-17 21:05 | 52.01176 | 4.80876 | 13054 ft | 356 kts | 171° |
| 2026-04-17 21:06 | 51.98702 | 4.81063 | 13836 ft | 358 kts | 189° |
| 2026-04-17 21:06 | 51.96318 | 4.79945 | 14587 ft | 359 kts | 205° |
| 2026-04-17 21:06 | 51.94308 | 4.78364 | 15233 ft | 363 kts | 209° |
| 2026-04-17 21:06 | 51.92053 | 4.76426 | 15971 ft | 368 kts | 209° |
| 2026-04-17 21:07 | 51.89740 | 4.74581 | 16752 ft | 373 kts | 207° |